sensor_id;sensor_type;location;lat;lon;timestamp;P1;durP1;ratioP1;P2;durP2;ratioP2
40591;SDS011;26301;42.832;23.918;2023-06-22T00:01:04;14.10;;;9.63;;
40591;SDS011;26301;42.832;23.918;2023-06-22T00:03:30;10.60;;;9.52;;
40591;SDS011;26301;42.832;23.918;2023-06-22T00:05:56;10.88;;;9.77;;
40591;SDS011;26301;42.832;23.918;2023-06-22T00:08:22;10.50;;;9.50;;
40591;SDS011;26301;42.832;23.918;2023-06-22T00:10:48;11.27;;;10.18;;
40591;SDS011;26301;42.832;23.918;2023-06-22T00:13:14;12.27;;;10.32;;
40591;SDS011;26301;42.832;23.918;2023-06-22T00:15:41;12.00;;;10.35;;
40591;SDS011;26301;42.832;23.918;2023-06-22T00:18:09;13.60;;;10.80;;
40591;SDS011;26301;42.832;23.918;2023-06-22T00:20:36;13.13;;;9.75;;
40591;SDS011;26301;42.832;23.918;2023-06-22T00:23:03;10.65;;;9.55;;
40591;SDS011;26301;42.832;23.918;2023-06-22T00:25:39;11.23;;;9.82;;
40591;SDS011;26301;42.832;23.918;2023-06-22T00:28:06;12.98;;;9.80;;
40591;SDS011;26301;42.832;23.918;2023-06-22T00:30:33;11.00;;;9.80;;
40591;SDS011;26301;42.832;23.918;2023-06-22T00:33:02;10.27;;;9.18;;
40591;SDS011;26301;42.832;23.918;2023-06-22T00:35:28;10.77;;;9.60;;
40591;SDS011;26301;42.832;23.918;2023-06-22T00:37:55;11.20;;;9.93;;
40591;SDS011;26301;42.832;23.918;2023-06-22T00:40:28;12.20;;;10.18;;
40591;SDS011;26301;42.832;23.918;2023-06-22T00:42:54;10.57;;;9.50;;
40591;SDS011;26301;42.832;23.918;2023-06-22T00:45:21;10.40;;;9.40;;
40591;SDS011;26301;42.832;23.918;2023-06-22T00:47:56;12.30;;;9.40;;
40591;SDS011;26301;42.832;23.918;2023-06-22T00:50:23;10.93;;;9.82;;
40591;SDS011;26301;42.832;23.918;2023-06-22T00:52:52;9.93;;;8.93;;
40591;SDS011;26301;42.832;23.918;2023-06-22T00:55:24;11.05;;;9.95;;
40591;SDS011;26301;42.832;23.918;2023-06-22T00:57:51;13.82;;;9.38;;
40591;SDS011;26301;42.832;23.918;2023-06-22T01:00:23;11.38;;;10.23;;
40591;SDS011;26301;42.832;23.918;2023-06-22T01:02:53;11.38;;;10.20;;
40591;SDS011;26301;42.832;23.918;2023-06-22T01:05:20;12.15;;;10.30;;
40591;SDS011;26301;42.832;23.918;2023-06-22T01:07:58;11.00;;;9.98;;
40591;SDS011;26301;42.832;23.918;2023-06-22T01:16:00;11.55;;;9.88;;
40591;SDS011;26301;42.832;23.918;2023-06-22T01:18:30;11.50;;;9.98;;
40591;SDS011;26301;42.832;23.918;2023-06-22T01:20:58;11.55;;;10.18;;
40591;SDS011;26301;42.832;23.918;2023-06-22T01:28:46;15.32;;;9.98;;
40591;SDS011;26301;42.832;23.918;2023-06-22T01:31:14;12.07;;;10.88;;
40591;SDS011;26301;42.832;23.918;2023-06-22T01:33:48;12.57;;;10.98;;
40591;SDS011;26301;42.832;23.918;2023-06-22T01:36:17;13.68;;;11.23;;
40591;SDS011;26301;42.832;23.918;2023-06-22T01:38:44;12.88;;;10.93;;
40591;SDS011;26301;42.832;23.918;2023-06-22T01:41:12;11.55;;;10.43;;
40591;SDS011;26301;42.832;23.918;2023-06-22T01:43:39;12.15;;;10.95;;
40591;SDS011;26301;42.832;23.918;2023-06-22T01:46:06;12.35;;;11.05;;
40591;SDS011;26301;42.832;23.918;2023-06-22T01:48:32;11.65;;;10.45;;
40591;SDS011;26301;42.832;23.918;2023-06-22T01:50:58;13.75;;;11.20;;
40591;SDS011;26301;42.832;23.918;2023-06-22T01:53:25;12.27;;;11.07;;
40591;SDS011;26301;42.832;23.918;2023-06-22T01:55:51;13.13;;;11.77;;
40591;SDS011;26301;42.832;23.918;2023-06-22T01:58:17;13.60;;;11.82;;
40591;SDS011;26301;42.832;23.918;2023-06-22T02:00:48;13.27;;;11.68;;
40591;SDS011;26301;42.832;23.918;2023-06-22T02:03:19;13.18;;;11.85;;
40591;SDS011;26301;42.832;23.918;2023-06-22T02:06:04;12.50;;;10.45;;
40591;SDS011;26301;42.832;23.918;2023-06-22T02:08:40;12.63;;;11.32;;
40591;SDS011;26301;42.832;23.918;2023-06-22T02:11:13;12.40;;;11.05;;
40591;SDS011;26301;42.832;23.918;2023-06-22T02:13:41;14.80;;;12.00;;
40591;SDS011;26301;42.832;23.918;2023-06-22T02:16:09;13.80;;;12.40;;
40591;SDS011;26301;42.832;23.918;2023-06-22T02:18:50;13.52;;;12.15;;
40591;SDS011;26301;42.832;23.918;2023-06-22T02:21:17;17.40;;;11.45;;
40591;SDS011;26301;42.832;23.918;2023-06-22T02:23:46;14.77;;;11.43;;
40591;SDS011;26301;42.832;23.918;2023-06-22T02:26:13;14.23;;;12.43;;
40591;SDS011;26301;42.832;23.918;2023-06-22T02:28:43;13.85;;;12.60;;
40591;SDS011;26301;42.832;23.918;2023-06-22T02:31:10;13.93;;;12.35;;
40591;SDS011;26301;42.832;23.918;2023-06-22T02:33:36;14.70;;;12.63;;
40591;SDS011;26301;42.832;23.918;2023-06-22T02:36:02;12.45;;;11.25;;
40591;SDS011;26301;42.832;23.918;2023-06-22T02:38:31;13.48;;;12.18;;
40591;SDS011;26301;42.832;23.918;2023-06-22T02:41:02;15.20;;;13.18;;
40591;SDS011;26301;42.832;23.918;2023-06-22T02:43:29;13.48;;;12.18;;
40591;SDS011;26301;42.832;23.918;2023-06-22T02:45:55;14.45;;;12.57;;
40591;SDS011;26301;42.832;23.918;2023-06-22T02:48:21;17.33;;;15.07;;
40591;SDS011;26301;42.832;23.918;2023-06-22T02:50:48;14.93;;;13.05;;
40591;SDS011;26301;42.832;23.918;2023-06-22T02:53:14;15.02;;;13.30;;
40591;SDS011;26301;42.832;23.918;2023-06-22T02:55:39;14.73;;;13.30;;
40591;SDS011;26301;42.832;23.918;2023-06-22T02:58:06;15.15;;;13.63;;
40591;SDS011;26301;42.832;23.918;2023-06-22T03:00:32;15.30;;;13.85;;
40591;SDS011;26301;42.832;23.918;2023-06-22T03:02:57;15.55;;;13.60;;
40591;SDS011;26301;42.832;23.918;2023-06-22T03:05:23;15.40;;;13.88;;
40591;SDS011;26301;42.832;23.918;2023-06-22T03:07:49;13.85;;;12.55;;
40591;SDS011;26301;42.832;23.918;2023-06-22T03:10:16;14.10;;;12.68;;
40591;SDS011;26301;42.832;23.918;2023-06-22T03:12:42;14.52;;;13.00;;
40591;SDS011;26301;42.832;23.918;2023-06-22T03:15:09;13.90;;;12.50;;
40591;SDS011;26301;42.832;23.918;2023-06-22T03:17:37;15.52;;;13.15;;
40591;SDS011;26301;42.832;23.918;2023-06-22T03:20:05;13.55;;;12.02;;
40591;SDS011;26301;42.832;23.918;2023-06-22T03:22:35;13.45;;;12.05;;
40591;SDS011;26301;42.832;23.918;2023-06-22T03:25:02;13.70;;;12.35;;
40591;SDS011;26301;42.832;23.918;2023-06-22T03:27:28;13.57;;;12.30;;
40591;SDS011;26301;42.832;23.918;2023-06-22T03:29:54;14.10;;;12.77;;
40591;SDS011;26301;42.832;23.918;2023-06-22T03:32:22;15.38;;;13.40;;
40591;SDS011;26301;42.832;23.918;2023-06-22T03:34:48;14.88;;;13.40;;
40591;SDS011;26301;42.832;23.918;2023-06-22T03:37:14;13.90;;;12.60;;
40591;SDS011;26301;42.832;23.918;2023-06-22T03:39:41;12.38;;;11.15;;
40591;SDS011;26301;42.832;23.918;2023-06-22T03:42:07;13.38;;;11.98;;
40591;SDS011;26301;42.832;23.918;2023-06-22T03:44:34;13.40;;;10.98;;
40591;SDS011;26301;42.832;23.918;2023-06-22T03:47:02;12.90;;;11.48;;
40591;SDS011;26301;42.832;23.918;2023-06-22T03:49:29;12.27;;;11.07;;
40591;SDS011;26301;42.832;23.918;2023-06-22T03:51:55;14.70;;;11.73;;
40591;SDS011;26301;42.832;23.918;2023-06-22T03:54:21;12.98;;;11.48;;
40591;SDS011;26301;42.832;23.918;2023-06-22T03:56:47;13.73;;;11.35;;
40591;SDS011;26301;42.832;23.918;2023-06-22T03:59:13;11.35;;;10.23;;
40591;SDS011;26301;42.832;23.918;2023-06-22T04:01:40;13.15;;;11.32;;
40591;SDS011;26301;42.832;23.918;2023-06-22T04:04:06;11.30;;;10.20;;
40591;SDS011;26301;42.832;23.918;2023-06-22T04:06:32;11.73;;;10.35;;
40591;SDS011;26301;42.832;23.918;2023-06-22T04:08:59;11.00;;;9.80;;
40591;SDS011;26301;42.832;23.918;2023-06-22T04:11:26;11.05;;;9.75;;
40591;SDS011;26301;42.832;23.918;2023-06-22T04:13:53;11.48;;;9.80;;
40591;SDS011;26301;42.832;23.918;2023-06-22T04:16:19;12.10;;;9.48;;
40591;SDS011;26301;42.832;23.918;2023-06-22T04:18:45;10.68;;;8.82;;
40591;SDS011;26301;42.832;23.918;2023-06-22T04:21:12;14.45;;;9.10;;
40591;SDS011;26301;42.832;23.918;2023-06-22T04:23:39;9.95;;;8.95;;
40591;SDS011;26301;42.832;23.918;2023-06-22T04:26:05;12.57;;;9.43;;
40591;SDS011;26301;42.832;23.918;2023-06-22T04:28:31;14.18;;;9.00;;
40591;SDS011;26301;42.832;23.918;2023-06-22T04:31:03;16.70;;;8.88;;
40591;SDS011;26301;42.832;23.918;2023-06-22T04:33:32;20.35;;;8.73;;
40591;SDS011;26301;42.832;23.918;2023-06-22T04:35:58;12.32;;;8.13;;
40591;SDS011;26301;42.832;23.918;2023-06-22T04:38:27;9.68;;;8.02;;
40591;SDS011;26301;42.832;23.918;2023-06-22T04:40:53;9.95;;;7.70;;
40591;SDS011;26301;42.832;23.918;2023-06-22T04:43:19;10.30;;;7.47;;
40591;SDS011;26301;42.832;23.918;2023-06-22T04:45:46;11.43;;;8.50;;
40591;SDS011;26301;42.832;23.918;2023-06-22T04:48:17;9.18;;;8.20;;
40591;SDS011;26301;42.832;23.918;2023-06-22T04:50:43;9.90;;;7.68;;
40591;SDS011;26301;42.832;23.918;2023-06-22T04:53:09;9.63;;;8.70;;
40591;SDS011;26301;42.832;23.918;2023-06-22T04:55:39;9.80;;;8.35;;
40591;SDS011;26301;42.832;23.918;2023-06-22T04:58:07;11.05;;;8.75;;
40591;SDS011;26301;42.832;23.918;2023-06-22T05:00:33;9.38;;;7.68;;
40591;SDS011;26301;42.832;23.918;2023-06-22T05:03:01;10.77;;;7.75;;
40591;SDS011;26301;42.832;23.918;2023-06-22T05:05:28;9.05;;;8.02;;
40591;SDS011;26301;42.832;23.918;2023-06-22T05:07:56;12.50;;;7.43;;
40591;SDS011;26301;42.832;23.918;2023-06-22T05:10:25;9.18;;;8.07;;
40591;SDS011;26301;42.832;23.918;2023-06-22T05:12:51;11.43;;;7.90;;
40591;SDS011;26301;42.832;23.918;2023-06-22T05:15:17;11.15;;;7.90;;
40591;SDS011;26301;42.832;23.918;2023-06-22T05:17:48;8.75;;;7.40;;
40591;SDS011;26301;42.832;23.918;2023-06-22T05:20:14;8.07;;;7.25;;
40591;SDS011;26301;42.832;23.918;2023-06-22T05:22:43;8.43;;;7.32;;
40591;SDS011;26301;42.832;23.918;2023-06-22T05:25:10;10.20;;;8.00;;
40591;SDS011;26301;42.832;23.918;2023-06-22T05:27:37;9.43;;;7.18;;
40591;SDS011;26301;42.832;23.918;2023-06-22T05:30:07;16.75;;;7.95;;
40591;SDS011;26301;42.832;23.918;2023-06-22T05:32:34;10.13;;;8.48;;
40591;SDS011;26301;42.832;23.918;2023-06-22T05:35:01;12.48;;;8.15;;
40591;SDS011;26301;42.832;23.918;2023-06-22T05:37:28;9.57;;;8.18;;
40591;SDS011;26301;42.832;23.918;2023-06-22T05:39:54;12.73;;;8.73;;
40591;SDS011;26301;42.832;23.918;2023-06-22T05:42:22;10.93;;;9.15;;
40591;SDS011;26301;42.832;23.918;2023-06-22T05:44:50;9.23;;;7.85;;
40591;SDS011;26301;42.832;23.918;2023-06-22T05:47:18;9.68;;;7.53;;
40591;SDS011;26301;42.832;23.918;2023-06-22T05:49:44;10.75;;;7.35;;
40591;SDS011;26301;42.832;23.918;2023-06-22T05:52:10;10.55;;;7.45;;
40591;SDS011;26301;42.832;23.918;2023-06-22T05:54:36;10.18;;;7.30;;
40591;SDS011;26301;42.832;23.918;2023-06-22T05:57:04;7.55;;;6.75;;
40591;SDS011;26301;42.832;23.918;2023-06-22T05:59:30;8.50;;;7.57;;
40591;SDS011;26301;42.832;23.918;2023-06-22T06:01:56;7.90;;;7.10;;
40591;SDS011;26301;42.832;23.918;2023-06-22T06:04:22;8.65;;;7.75;;
40591;SDS011;26301;42.832;23.918;2023-06-22T06:06:48;9.77;;;6.97;;
40591;SDS011;26301;42.832;23.918;2023-06-22T06:09:14;9.73;;;7.38;;
40591;SDS011;26301;42.832;23.918;2023-06-22T06:11:40;7.45;;;6.68;;
40591;SDS011;26301;42.832;23.918;2023-06-22T06:14:07;7.97;;;7.07;;
40591;SDS011;26301;42.832;23.918;2023-06-22T06:16:33;7.53;;;6.05;;
40591;SDS011;26301;42.832;23.918;2023-06-22T06:18:59;9.77;;;6.45;;
40591;SDS011;26301;42.832;23.918;2023-06-22T06:21:25;11.85;;;6.72;;
40591;SDS011;26301;42.832;23.918;2023-06-22T06:23:51;11.05;;;6.95;;
40591;SDS011;26301;42.832;23.918;2023-06-22T06:26:18;9.20;;;6.60;;
40591;SDS011;26301;42.832;23.918;2023-06-22T06:28:51;9.02;;;6.57;;
40591;SDS011;26301;42.832;23.918;2023-06-22T06:31:17;6.97;;;6.25;;
40591;SDS011;26301;42.832;23.918;2023-06-22T06:33:43;7.80;;;7.00;;
40591;SDS011;26301;42.832;23.918;2023-06-22T06:36:10;8.13;;;6.20;;
40591;SDS011;26301;42.832;23.918;2023-06-22T06:38:36;7.75;;;6.88;;
40591;SDS011;26301;42.832;23.918;2023-06-22T06:41:02;9.82;;;6.95;;
40591;SDS011;26301;42.832;23.918;2023-06-22T06:43:31;8.85;;;6.93;;
40591;SDS011;26301;42.832;23.918;2023-06-22T06:45:57;9.23;;;6.30;;
40591;SDS011;26301;42.832;23.918;2023-06-22T06:48:23;7.85;;;6.47;;
40591;SDS011;26301;42.832;23.918;2023-06-22T06:50:49;9.13;;;6.43;;
40591;SDS011;26301;42.832;23.918;2023-06-22T06:53:16;11.48;;;6.60;;
40591;SDS011;26301;42.832;23.918;2023-06-22T06:55:41;7.05;;;6.35;;
40591;SDS011;26301;42.832;23.918;2023-06-22T06:58:08;7.55;;;6.75;;
40591;SDS011;26301;42.832;23.918;2023-06-22T07:00:37;7.35;;;6.13;;
40591;SDS011;26301;42.832;23.918;2023-06-22T07:03:03;8.77;;;6.28;;
40591;SDS011;26301;42.832;23.918;2023-06-22T07:05:28;10.90;;;6.60;;
40591;SDS011;26301;42.832;23.918;2023-06-22T07:07:55;10.00;;;7.43;;
40591;SDS011;26301;42.832;23.918;2023-06-22T07:10:22;13.68;;;7.07;;
40591;SDS011;26301;42.832;23.918;2023-06-22T07:12:48;7.95;;;6.28;;
40591;SDS011;26301;42.832;23.918;2023-06-22T07:15:14;8.00;;;6.75;;
40591;SDS011;26301;42.832;23.918;2023-06-22T07:17:40;7.65;;;6.72;;
40591;SDS011;26301;42.832;23.918;2023-06-22T07:20:06;7.85;;;6.50;;
40591;SDS011;26301;42.832;23.918;2023-06-22T07:22:36;11.25;;;6.80;;
40591;SDS011;26301;42.832;23.918;2023-06-22T07:25:02;7.97;;;6.63;;
40591;SDS011;26301;42.832;23.918;2023-06-22T07:30:33;8.48;;;6.40;;
40591;SDS011;26301;42.832;23.918;2023-06-22T07:33:01;8.73;;;6.78;;
40591;SDS011;26301;42.832;23.918;2023-06-22T07:35:33;7.78;;;6.00;;
40591;SDS011;26301;42.832;23.918;2023-06-22T07:37:59;12.00;;;6.10;;
40591;SDS011;26301;42.832;23.918;2023-06-22T07:40:25;8.80;;;6.38;;
40591;SDS011;26301;42.832;23.918;2023-06-22T07:42:51;9.20;;;5.90;;
40591;SDS011;26301;42.832;23.918;2023-06-22T07:45:18;7.15;;;6.22;;
40591;SDS011;26301;42.832;23.918;2023-06-22T07:47:44;7.57;;;5.82;;
40591;SDS011;26301;42.832;23.918;2023-06-22T07:50:10;11.55;;;6.35;;
40591;SDS011;26301;42.832;23.918;2023-06-22T07:52:36;7.30;;;5.25;;
40591;SDS011;26301;42.832;23.918;2023-06-22T07:55:02;10.60;;;5.00;;
40591;SDS011;26301;42.832;23.918;2023-06-22T07:57:30;6.60;;;5.90;;
40591;SDS011;26301;42.832;23.918;2023-06-22T08:00:03;6.65;;;5.50;;
40591;SDS011;26301;42.832;23.918;2023-06-22T08:02:48;12.95;;;5.88;;
40591;SDS011;26301;42.832;23.918;2023-06-22T08:05:14;5.88;;;4.80;;
40591;SDS011;26301;42.832;23.918;2023-06-22T08:07:41;6.63;;;5.40;;
40591;SDS011;26301;42.832;23.918;2023-06-22T08:10:10;6.28;;;5.35;;
40591;SDS011;26301;42.832;23.918;2023-06-22T08:12:36;4.82;;;4.32;;
40591;SDS011;26301;42.832;23.918;2023-06-22T08:15:03;5.47;;;4.97;;
40591;SDS011;26301;42.832;23.918;2023-06-22T08:17:29;7.55;;;4.53;;
40591;SDS011;26301;42.832;23.918;2023-06-22T08:19:56;4.90;;;4.40;;
40591;SDS011;26301;42.832;23.918;2023-06-22T08:22:22;4.97;;;4.20;;
40591;SDS011;26301;42.832;23.918;2023-06-22T08:24:47;5.25;;;4.72;;
40591;SDS011;26301;42.832;23.918;2023-06-22T08:27:14;7.50;;;6.13;;
40591;SDS011;26301;42.832;23.918;2023-06-22T08:29:46;5.93;;;4.53;;
40591;SDS011;26301;42.832;23.918;2023-06-22T08:32:12;5.03;;;4.47;;
40591;SDS011;26301;42.832;23.918;2023-06-22T08:34:38;8.20;;;4.82;;
40591;SDS011;26301;42.832;23.918;2023-06-22T08:37:08;6.20;;;5.00;;
40591;SDS011;26301;42.832;23.918;2023-06-22T08:39:34;6.10;;;5.05;;
40591;SDS011;26301;42.832;23.918;2023-06-22T08:42:00;5.57;;;4.78;;
40591;SDS011;26301;42.832;23.918;2023-06-22T08:44:26;6.15;;;4.93;;
40591;SDS011;26301;42.832;23.918;2023-06-22T08:46:52;5.53;;;4.63;;
40591;SDS011;26301;42.832;23.918;2023-06-22T08:49:17;8.27;;;5.47;;
40591;SDS011;26301;42.832;23.918;2023-06-22T08:51:43;7.50;;;5.32;;
40591;SDS011;26301;42.832;23.918;2023-06-22T08:54:10;5.70;;;5.15;;
40591;SDS011;26301;42.832;23.918;2023-06-22T08:56:36;5.82;;;4.90;;
40591;SDS011;26301;42.832;23.918;2023-06-22T08:59:04;6.18;;;5.43;;
40591;SDS011;26301;42.832;23.918;2023-06-22T09:01:32;6.40;;;5.10;;
40591;SDS011;26301;42.832;23.918;2023-06-22T09:03:58;5.38;;;4.80;;
40591;SDS011;26301;42.832;23.918;2023-06-22T09:06:25;7.05;;;4.97;;
40591;SDS011;26301;42.832;23.918;2023-06-22T09:08:51;5.28;;;4.78;;
40591;SDS011;26301;42.832;23.918;2023-06-22T09:11:16;5.85;;;5.13;;
40591;SDS011;26301;42.832;23.918;2023-06-22T09:13:42;5.80;;;4.80;;
40591;SDS011;26301;42.832;23.918;2023-06-22T09:16:09;6.63;;;5.50;;
40591;SDS011;26301;42.832;23.918;2023-06-22T09:18:37;7.50;;;5.95;;
40591;SDS011;26301;42.832;23.918;2023-06-22T09:21:03;8.32;;;5.50;;
40591;SDS011;26301;42.832;23.918;2023-06-22T09:23:29;5.57;;;4.97;;
40591;SDS011;26301;42.832;23.918;2023-06-22T09:25:55;5.70;;;5.10;;
40591;SDS011;26301;42.832;23.918;2023-06-22T09:28:20;6.30;;;5.70;;
40591;SDS011;26301;42.832;23.918;2023-06-22T09:30:46;7.10;;;5.43;;
40591;SDS011;26301;42.832;23.918;2023-06-22T09:33:12;7.60;;;5.50;;
40591;SDS011;26301;42.832;23.918;2023-06-22T09:35:38;7.07;;;5.55;;
40591;SDS011;26301;42.832;23.918;2023-06-22T09:38:04;6.53;;;5.90;;
40591;SDS011;26301;42.832;23.918;2023-06-22T09:40:30;6.63;;;5.85;;
40591;SDS011;26301;42.832;23.918;2023-06-22T09:43:00;7.80;;;6.57;;
40591;SDS011;26301;42.832;23.918;2023-06-22T09:45:26;6.40;;;5.78;;
40591;SDS011;26301;42.832;23.918;2023-06-22T09:47:52;7.13;;;6.38;;
40591;SDS011;26301;42.832;23.918;2023-06-22T09:50:18;7.05;;;6.35;;
40591;SDS011;26301;42.832;23.918;2023-06-22T09:52:44;6.68;;;6.07;;
40591;SDS011;26301;42.832;23.918;2023-06-22T09:55:15;6.93;;;6.00;;
40591;SDS011;26301;42.832;23.918;2023-06-22T09:57:41;7.88;;;6.28;;
40591;SDS011;26301;42.832;23.918;2023-06-22T10:00:07;7.65;;;6.10;;
40591;SDS011;26301;42.832;23.918;2023-06-22T10:02:36;7.53;;;5.72;;
40591;SDS011;26301;42.832;23.918;2023-06-22T10:05:02;6.65;;;5.75;;
40591;SDS011;26301;42.832;23.918;2023-06-22T10:07:30;6.82;;;6.13;;
40591;SDS011;26301;42.832;23.918;2023-06-22T10:09:56;6.93;;;5.78;;
40591;SDS011;26301;42.832;23.918;2023-06-22T10:12:22;13.45;;;6.50;;
40591;SDS011;26301;42.832;23.918;2023-06-22T10:14:47;6.15;;;5.55;;
40591;SDS011;26301;42.832;23.918;2023-06-22T10:17:13;8.73;;;6.45;;
40591;SDS011;26301;42.832;23.918;2023-06-22T10:19:40;7.45;;;6.30;;
40591;SDS011;26301;42.832;23.918;2023-06-22T10:22:06;10.35;;;6.07;;
40591;SDS011;26301;42.832;23.918;2023-06-22T10:24:32;7.50;;;6.80;;
40591;SDS011;26301;42.832;23.918;2023-06-22T10:26:58;6.65;;;5.95;;
40591;SDS011;26301;42.832;23.918;2023-06-22T10:29:24;8.02;;;6.00;;
40591;SDS011;26301;42.832;23.918;2023-06-22T10:31:50;8.13;;;6.20;;
40591;SDS011;26301;42.832;23.918;2023-06-22T10:34:16;6.80;;;6.10;;
40591;SDS011;26301;42.832;23.918;2023-06-22T10:36:42;7.22;;;6.53;;
40591;SDS011;26301;42.832;23.918;2023-06-22T10:39:11;7.28;;;6.15;;
40591;SDS011;26301;42.832;23.918;2023-06-22T10:41:37;6.80;;;6.10;;
40591;SDS011;26301;42.832;23.918;2023-06-22T10:44:03;7.18;;;6.53;;
40591;SDS011;26301;42.832;23.918;2023-06-22T10:46:29;7.15;;;6.45;;
40591;SDS011;26301;42.832;23.918;2023-06-22T10:48:55;6.82;;;6.13;;
40591;SDS011;26301;42.832;23.918;2023-06-22T10:51:23;6.60;;;5.88;;
40591;SDS011;26301;42.832;23.918;2023-06-22T10:53:50;6.80;;;6.20;;
40591;SDS011;26301;42.832;23.918;2023-06-22T10:56:17;6.97;;;6.22;;
40591;SDS011;26301;42.832;23.918;2023-06-22T10:58:44;6.22;;;5.63;;
40591;SDS011;26301;42.832;23.918;2023-06-22T11:01:11;7.07;;;6.03;;
40591;SDS011;26301;42.832;23.918;2023-06-22T11:03:37;7.32;;;6.50;;
40591;SDS011;26301;42.832;23.918;2023-06-22T11:06:03;7.25;;;6.55;;
40591;SDS011;26301;42.832;23.918;2023-06-22T11:08:29;6.28;;;5.68;;
40591;SDS011;26301;42.832;23.918;2023-06-22T11:10:54;6.95;;;6.25;;
40591;SDS011;26301;42.832;23.918;2023-06-22T11:13:21;7.22;;;6.00;;
40591;SDS011;26301;42.832;23.918;2023-06-22T11:15:46;6.70;;;6.00;;
40591;SDS011;26301;42.832;23.918;2023-06-22T11:18:13;6.43;;;5.45;;
40591;SDS011;26301;42.832;23.918;2023-06-22T11:20:39;8.02;;;6.05;;
40591;SDS011;26301;42.832;23.918;2023-06-22T11:23:06;6.90;;;6.20;;
40591;SDS011;26301;42.832;23.918;2023-06-22T11:25:32;7.95;;;6.15;;
40591;SDS011;26301;42.832;23.918;2023-06-22T11:28:01;6.70;;;6.05;;
40591;SDS011;26301;42.832;23.918;2023-06-22T11:30:28;8.18;;;5.57;;
40591;SDS011;26301;42.832;23.918;2023-06-22T11:32:54;7.15;;;6.47;;
40591;SDS011;26301;42.832;23.918;2023-06-22T11:35:20;7.78;;;5.90;;
40591;SDS011;26301;42.832;23.918;2023-06-22T11:37:46;7.03;;;6.30;;
40591;SDS011;26301;42.832;23.918;2023-06-22T11:40:12;6.88;;;6.20;;
40591;SDS011;26301;42.832;23.918;2023-06-22T11:42:38;12.45;;;6.32;;
40591;SDS011;26301;42.832;23.918;2023-06-22T11:45:04;7.75;;;6.40;;
40591;SDS011;26301;42.832;23.918;2023-06-22T11:47:31;7.63;;;6.32;;
40591;SDS011;26301;42.832;23.918;2023-06-22T11:49:58;7.70;;;6.55;;
40591;SDS011;26301;42.832;23.918;2023-06-22T11:52:24;7.95;;;6.88;;
40591;SDS011;26301;42.832;23.918;2023-06-22T11:54:52;7.30;;;6.18;;
40591;SDS011;26301;42.832;23.918;2023-06-22T11:57:18;7.03;;;6.32;;
40591;SDS011;26301;42.832;23.918;2023-06-22T11:59:44;6.38;;;5.78;;
40591;SDS011;26301;42.832;23.918;2023-06-22T12:02:10;9.00;;;6.28;;
40591;SDS011;26301;42.832;23.918;2023-06-22T12:04:36;6.93;;;6.22;;
40591;SDS011;26301;42.832;23.918;2023-06-22T12:07:03;9.18;;;6.50;;
40591;SDS011;26301;42.832;23.918;2023-06-22T12:09:29;11.38;;;6.53;;
40591;SDS011;26301;42.832;23.918;2023-06-22T12:11:55;7.15;;;6.30;;
40591;SDS011;26301;42.832;23.918;2023-06-22T12:14:21;7.68;;;6.57;;
40591;SDS011;26301;42.832;23.918;2023-06-22T12:16:47;8.73;;;6.05;;
40591;SDS011;26301;42.832;23.918;2023-06-22T12:19:13;8.18;;;6.35;;
40591;SDS011;26301;42.832;23.918;2023-06-22T12:21:39;6.85;;;6.15;;
40591;SDS011;26301;42.832;23.918;2023-06-22T12:24:06;9.57;;;6.30;;
40591;SDS011;26301;42.832;23.918;2023-06-22T12:26:32;6.85;;;6.22;;
40591;SDS011;26301;42.832;23.918;2023-06-22T12:28:59;6.75;;;5.88;;
40591;SDS011;26301;42.832;23.918;2023-06-22T12:31:25;7.13;;;6.28;;
40591;SDS011;26301;42.832;23.918;2023-06-22T12:33:51;8.55;;;6.28;;
40591;SDS011;26301;42.832;23.918;2023-06-22T12:36:17;7.30;;;6.60;;
40591;SDS011;26301;42.832;23.918;2023-06-22T12:38:43;7.70;;;6.75;;
40591;SDS011;26301;42.832;23.918;2023-06-22T12:41:09;9.38;;;6.32;;
40591;SDS011;26301;42.832;23.918;2023-06-22T12:43:35;8.45;;;6.75;;
40591;SDS011;26301;42.832;23.918;2023-06-22T12:46:00;7.32;;;6.63;;
40591;SDS011;26301;42.832;23.918;2023-06-22T12:48:27;8.85;;;6.47;;
40591;SDS011;26301;42.832;23.918;2023-06-22T12:50:53;7.15;;;6.45;;
40591;SDS011;26301;42.832;23.918;2023-06-22T12:53:19;7.00;;;6.30;;
40591;SDS011;26301;42.832;23.918;2023-06-22T12:55:45;7.18;;;6.47;;
40591;SDS011;26301;42.832;23.918;2023-06-22T12:58:11;7.47;;;6.57;;
40591;SDS011;26301;42.832;23.918;2023-06-22T13:00:38;7.43;;;6.70;;
40591;SDS011;26301;42.832;23.918;2023-06-22T13:03:05;6.50;;;5.90;;
40591;SDS011;26301;42.832;23.918;2023-06-22T13:05:31;7.15;;;6.47;;
40591;SDS011;26301;42.832;23.918;2023-06-22T13:07:59;8.48;;;6.57;;
40591;SDS011;26301;42.832;23.918;2023-06-22T13:10:25;6.80;;;6.10;;
40591;SDS011;26301;42.832;23.918;2023-06-22T13:12:52;8.13;;;6.53;;
40591;SDS011;26301;42.832;23.918;2023-06-22T13:15:25;7.25;;;6.55;;
40591;SDS011;26301;42.832;23.918;2023-06-22T13:17:55;7.32;;;6.43;;
40591;SDS011;26301;42.832;23.918;2023-06-22T13:20:21;6.57;;;5.97;;
40591;SDS011;26301;42.832;23.918;2023-06-22T13:22:46;6.93;;;6.28;;
40591;SDS011;26301;42.832;23.918;2023-06-22T13:25:12;7.55;;;6.65;;
40591;SDS011;26301;42.832;23.918;2023-06-22T13:27:39;7.05;;;6.35;;
40591;SDS011;26301;42.832;23.918;2023-06-22T13:30:06;7.75;;;6.93;;
40591;SDS011;26301;42.832;23.918;2023-06-22T13:32:32;7.85;;;7.05;;
40591;SDS011;26301;42.832;23.918;2023-06-22T13:34:58;10.15;;;7.07;;
40591;SDS011;26301;42.832;23.918;2023-06-22T13:37:25;8.05;;;7.10;;
40591;SDS011;26301;42.832;23.918;2023-06-22T13:39:52;20.20;;;9.60;;
40591;SDS011;26301;42.832;23.918;2023-06-22T13:42:18;8.25;;;7.40;;
40591;SDS011;26301;42.832;23.918;2023-06-22T13:44:44;9.90;;;7.07;;
40591;SDS011;26301;42.832;23.918;2023-06-22T13:47:10;9.73;;;7.20;;
40591;SDS011;26301;42.832;23.918;2023-06-22T13:49:37;13.15;;;7.65;;
40591;SDS011;26301;42.832;23.918;2023-06-22T13:52:03;10.80;;;7.53;;
40591;SDS011;26301;42.832;23.918;2023-06-22T13:54:31;8.60;;;6.82;;
40591;SDS011;26301;42.832;23.918;2023-06-22T13:56:58;8.48;;;7.10;;
40591;SDS011;26301;42.832;23.918;2023-06-22T13:59:23;12.77;;;8.07;;
40591;SDS011;26301;42.832;23.918;2023-06-22T14:01:51;10.38;;;7.90;;
40591;SDS011;26301;42.832;23.918;2023-06-22T14:04:21;10.55;;;8.07;;
40591;SDS011;26301;42.832;23.918;2023-06-22T14:06:48;15.43;;;8.90;;
40591;SDS011;26301;42.832;23.918;2023-06-22T14:09:14;7.85;;;7.07;;
40591;SDS011;26301;42.832;23.918;2023-06-22T14:11:40;12.70;;;8.32;;
40591;SDS011;26301;42.832;23.918;2023-06-22T14:14:07;7.50;;;6.70;;
40591;SDS011;26301;42.832;23.918;2023-06-22T14:16:33;8.20;;;7.38;;
40591;SDS011;26301;42.832;23.918;2023-06-22T14:19:00;12.98;;;7.93;;
40591;SDS011;26301;42.832;23.918;2023-06-22T14:21:26;9.32;;;7.55;;
40591;SDS011;26301;42.832;23.918;2023-06-22T14:23:52;28.05;;;12.85;;
40591;SDS011;26301;42.832;23.918;2023-06-22T14:26:18;9.70;;;7.28;;
40591;SDS011;26301;42.832;23.918;2023-06-22T14:28:45;7.68;;;6.97;;
40591;SDS011;26301;42.832;23.918;2023-06-22T14:31:17;8.00;;;7.20;;
40591;SDS011;26301;42.832;23.918;2023-06-22T14:33:46;8.25;;;7.15;;
40591;SDS011;26301;42.832;23.918;2023-06-22T14:36:12;7.95;;;7.10;;
40591;SDS011;26301;42.832;23.918;2023-06-22T14:38:39;8.57;;;6.78;;